Aérodrome :
LOGIN :

S'inscrire | Disclaimer

   EN    FR    IT 

 










Légende :    VFR   VFR Marginal   IFR   IFR Intensif   IFR Très Intensif
Visi : 
Plafond : 
>= 8 km
>= 3000ft
5 à 8 km
1000 à 3000 ft
1500m à 5 km
500 à 1000 ft
800 à 1500m
200 à 500 ft
< 800m
< 200 ft
Symboles :   Orages  Brouillard  Fortes neiges  Fortes précipitations  Vent > 20 kt
SIGMETs :   Divers  Orages  Givrage  Turbulence  Onde Orograph.  Cendres Volcan.






- Altitude de l'aérodrome : 479 ft
- Code IATA : DOL


LFRG - Deauville

DERNIER METAR :
  • 190530Z AUTO 22003KT 9999 SCT034 BKN042 03/02 Q1017 NOSIG

METARs EXPIRÉS :
  • 190500Z AUTO 19004KT 9999 SCT045 01/00 Q1017
  • 190430Z AUTO VRB02KT CAVOK 02/02 Q1017
  • 190400Z AUTO 20004KT CAVOK 02/01 Q1017
  • 190330Z AUTO 21004KT 9999 FEW033 BKN043 BKN130 03/02 Q1017
  • 190300Z AUTO 24003KT 9999 BKN045 BKN130 02/02 Q1017

TAF TAF LFRG
Valide du 19 à 06h jusqu'au 19 à 15h UTC


190500Z 1906/1915 19004KT CAVOK
BECMG 1906/1909 18006KT
ATIS : +33 2 31 65 65 36



MET'MAP, la Météo Aéronautique d'un coup d'oeil ! - Copyright ORBIFLY Décembre 2007 - Disclaimer

ORBIFLY MET'MAP TEAM :

Programmation & Développement : Alexandra Zaïnal
Conception & Développement : Baudouin d'Aumeries
Co-Programmation & Développement : Marc-Olivier Méhu
Soutien technique & logistique : Manuel Goepfert

Contact : metmap@orbifly.com




SOURCES & CREDITS :

   NOAA